Weather History for Arctic Village, AK

Change the Weather History Date:

Sunday, September 9, 2012

  Actual Average Record
Temperature  
Mean Temperature 34 °F -  
Max Temperature 42 °F 47 °F 60 °F (1989)
Min Temperature 26 °F 21 °F 8 °F (1970)
Degree Days  
Heating Degree Days 31    
Moisture  
Dew Point 19 °F    
Average Humidity 54    
Maximum Humidity 69    
Minimum Humidity 39    
Precipitation  
Precipitation 0.00 in - - ()
Sea Level Pressure  
Sea Level Pressure 29.89 in    
Wind  
Wind Speed 7 mph (NE)    
Max Wind Speed 10 mph    
Max Gust Speed -    
Visibility 10 miles    
Events      
Averages and records for this station are not official NWS values.
T = Trace of Precipitation, MM = Missing Value Source: NWS Daily Summary

Daily Weather History Graph

Daily Weather History Graph

Search for Another Location

Airport:

Trip Planner

Search our weather history database for the weather conditions in past years. The results will help you decide how hot, cold, wet, or windy it might be!

Date:

Astronomy

Sep. 09, 2012 Rise Set
Actual Time 6:39 AM AKDT 8:36 PM AKDT
Civil Twilight 5:39 AM AKDT 9:36 PM AKDT
Nautical Twilight 4:14 AM AKDT 10:59 PM AKDT
Astronomical Twilight 2:11 AM AKDT 1:06 AM AKDT
Moon 10:30 PM AKDT (9/9) 7:13 PM AKDT (9/9)
Length of Visible Light 15h 57m
Length of Day
13h 56m
Last Quarter, 38% of the Moon is Illuminated
Sep 9
Last Quarter
Sep 15
New
Sep 22
First Quarter
Sep 29
Full
Oct 7
Last Quarter

Hourly Weather History & Observations

Time (AKDT) Temp. Windchill Dew Point Humidity Pressure Visibility Wind Dir Wind Speed Gust Speed Precip Events Conditions
12:16 AM 30.2 °F 21.3 °F 17.6 °F 60% 29.85 in 10.0 mi ENE 10.4 mph - N/A   Clear
12:36 AM 30.2 °F 21.9 °F 17.6 °F 60% 29.85 in 10.0 mi NE 9.2 mph - N/A   Clear
12:56 AM 30.2 °F 21.9 °F 17.6 °F 60% 29.86 in 10.0 mi ENE 9.2 mph - N/A   Clear
1:16 AM 30.2 °F 22.6 °F 17.6 °F 60% 29.86 in 10.0 mi ENE 8.1 mph - N/A   Clear
1:36 AM 30.2 °F 23.4 °F 15.8 °F 55% 29.86 in 10.0 mi ENE 6.9 mph - N/A   Clear
1:56 AM 30.2 °F 21.9 °F 15.8 °F 55% 29.86 in 10.0 mi ENE 9.2 mph - N/A   Clear
2:16 AM 30.2 °F 22.6 °F 17.6 °F 60% 29.86 in 10.0 mi ENE 8.1 mph - N/A   Clear
2:36 AM 28.4 °F 20.4 °F 19.4 °F 69% 29.86 in 10.0 mi ENE 8.1 mph - N/A   Clear
2:56 AM 30.2 °F 24.3 °F 17.6 °F 60% 29.86 in 10.0 mi ENE 5.8 mph - N/A   Clear
3:16 AM 30.2 °F 21.9 °F 17.6 °F 60% 29.86 in 10.0 mi ENE 9.2 mph - N/A   Clear
3:36 AM 30.2 °F 23.4 °F 17.6 °F 60% 29.86 in 10.0 mi ENE 6.9 mph - N/A   Clear
3:56 AM 30.2 °F 21.9 °F 17.6 °F 60% 29.86 in 10.0 mi ENE 9.2 mph - N/A   Clear
4:16 AM 28.4 °F 19.7 °F 17.6 °F 64% 29.86 in 10.0 mi ENE 9.2 mph - N/A   Clear
4:36 AM 28.4 °F 19.7 °F 17.6 °F 64% 29.87 in 10.0 mi ENE 9.2 mph - N/A   Clear
4:56 AM 28.4 °F 21.2 °F 17.6 °F 64% 29.87 in 10.0 mi ENE 6.9 mph - N/A   Clear
5:16 AM 28.4 °F 20.4 °F 19.4 °F 69% 29.88 in 10.0 mi ENE 8.1 mph - N/A   Clear
5:36 AM 28.4 °F 21.2 °F 17.6 °F 64% 29.88 in 10.0 mi ENE 6.9 mph - N/A   Clear
6:16 AM 26.6 °F 19.1 °F 17.6 °F 69% 29.88 in 10.0 mi ENE 6.9 mph - N/A   Clear
6:36 AM 26.6 °F 18.2 °F 17.6 °F 69% 29.88 in 10.0 mi ENE 8.1 mph - N/A   Clear
6:56 AM 26.6 °F 19.1 °F 17.6 °F 69% 29.89 in 10.0 mi ENE 6.9 mph - N/A   Clear
7:36 AM 28.4 °F 21.2 °F 17.6 °F 64% 29.90 in 10.0 mi ENE 6.9 mph - N/A   Clear
7:56 AM 28.4 °F 21.2 °F 19.4 °F 69% 29.90 in 10.0 mi East 6.9 mph - N/A   Clear
8:16 AM 28.4 °F 22.2 °F 19.4 °F 69% 29.90 in 10.0 mi East 5.8 mph - N/A   Clear
8:36 AM 30.2 °F 22.6 °F 19.4 °F 64% 29.90 in 10.0 mi ENE 8.1 mph - N/A   Clear
8:56 AM 30.2 °F 22.6 °F 19.4 °F 64% 29.90 in 10.0 mi ENE 8.1 mph - N/A   Partly Cloudy
9:16 AM 32.0 °F 24.8 °F 19.4 °F 60% 29.90 in 10.0 mi ENE 8.1 mph - N/A   Mostly Cloudy
9:36 AM 32.0 °F 24.2 °F 17.6 °F 55% 29.90 in 10.0 mi NE 9.2 mph - N/A   Scattered Clouds
9:56 AM 32.0 °F 26.4 °F 19.4 °F 60% 29.90 in 10.0 mi NE 5.8 mph - N/A   Clear
10:16 AM 32.0 °F 24.8 °F 17.6 °F 55% 29.90 in 10.0 mi ENE 8.1 mph - N/A   Clear
10:36 AM 33.8 °F 28.6 °F 19.4 °F 56% 29.90 in 10.0 mi NE 5.8 mph - N/A   Clear
10:56 AM 33.8 °F 26.4 °F 19.4 °F 56% 29.90 in 10.0 mi NE 9.2 mph - N/A   Mostly Cloudy
11:16 AM 33.8 °F 27.7 °F 19.4 °F 56% 29.90 in 10.0 mi NE 6.9 mph - N/A   Overcast
11:36 AM 35.6 °F 29.9 °F 17.6 °F 48% 29.90 in 10.0 mi NE 6.9 mph - N/A   Mostly Cloudy
11:56 AM 35.6 °F 29.9 °F 19.4 °F 52% 29.90 in 10.0 mi ENE 6.9 mph - N/A   Scattered Clouds
12:16 PM 35.6 °F 30.7 °F 19.4 °F 52% 29.90 in 10.0 mi East 5.8 mph - N/A   Partly Cloudy
12:36 PM 35.6 °F 32.8 °F 17.6 °F 48% 29.90 in 10.0 mi ESE 3.5 mph - N/A   Partly Cloudy
12:56 PM 37.4 °F - 19.4 °F 48% 29.90 in 10.0 mi Calm Calm - N/A   Mostly Cloudy
1:16 PM 37.4 °F - 19.4 °F 48% 29.89 in 10.0 mi Calm Calm - N/A   Partly Cloudy
1:36 PM 37.4 °F 34.9 °F 19.4 °F 48% 29.90 in 10.0 mi NE 3.5 mph - N/A   Clear
1:56 PM 39.2 °F 35.9 °F 19.4 °F 45% 29.89 in 10.0 mi ESE 4.6 mph - N/A   Clear
2:16 PM 39.2 °F - 19.4 °F 45% 29.89 in 10.0 mi Calm Calm - N/A   Clear
2:36 PM 39.2 °F 35.9 °F 17.6 °F 42% 29.89 in 10.0 mi ESE 4.6 mph - N/A   Clear
2:56 PM 39.2 °F - 17.6 °F 42% 29.89 in 10.0 mi Calm Calm - N/A   Clear
3:16 PM 39.2 °F 33.6 °F 17.6 °F 42% 29.88 in 10.0 mi ENE 8.1 mph - N/A   Clear
3:36 PM 42.8 °F 38.0 °F 19.4 °F 39% 29.88 in 10.0 mi ENE 8.1 mph - N/A   Mostly Cloudy
3:56 PM 42.8 °F 39.3 °F 19.4 °F 39% 29.88 in 10.0 mi East 5.8 mph - N/A   Overcast
4:16 PM 41.0 °F 39.0 °F 19.4 °F 42% 29.88 in 10.0 mi NE 3.5 mph - N/A   Overcast
4:36 PM 41.0 °F - 19.4 °F 42% 29.88 in 10.0 mi Calm Calm - N/A   Overcast
4:56 PM 41.0 °F 37.1 °F 19.4 °F 42% 29.88 in 10.0 mi East 5.8 mph - N/A   Overcast
5:16 PM 41.0 °F - 19.4 °F 42% 29.88 in 10.0 mi Calm Calm - N/A   Overcast
5:36 PM 41.0 °F 35.2 °F 19.4 °F 42% 29.89 in 10.0 mi NE 9.2 mph - N/A   Overcast
5:56 PM 41.0 °F 35.8 °F 19.4 °F 42% 29.89 in 10.0 mi NE 8.1 mph - N/A   Overcast
6:16 PM 39.2 °F 33.0 °F 19.4 °F 45% 29.89 in 10.0 mi NE 9.2 mph - N/A   Overcast
6:36 PM 39.2 °F 33.6 °F 21.2 °F 49% 29.90 in 10.0 mi NE 8.1 mph - N/A   Overcast
6:56 PM 39.2 °F 33.0 °F 19.4 °F 45% 29.90 in 10.0 mi NNE 9.2 mph - N/A   Overcast
7:16 PM 39.2 °F 33.6 °F 19.4 °F 45% 29.90 in 10.0 mi NNE 8.1 mph - N/A   Overcast
7:36 PM 37.4 °F 30.8 °F 21.2 °F 52% 29.90 in 10.0 mi NNE 9.2 mph - N/A   Overcast
7:56 PM 37.4 °F 31.4 °F 21.2 °F 52% 29.90 in 10.0 mi NNE 8.1 mph - N/A   Overcast
8:16 PM 35.6 °F 29.9 °F 21.2 °F 56% 29.91 in 10.0 mi NNE 6.9 mph - N/A   Overcast
8:36 PM 35.6 °F 29.9 °F 19.4 °F 52% 29.91 in 10.0 mi NNE 6.9 mph - N/A   Overcast
8:56 PM 35.6 °F 30.7 °F 19.4 °F 52% 29.91 in 10.0 mi NNE 5.8 mph - N/A   Overcast
9:16 PM 35.6 °F 29.2 °F 19.4 °F 52% 29.91 in 10.0 mi North 8.1 mph - N/A   Overcast
9:36 PM 35.6 °F 28.0 °F 19.4 °F 52% 29.91 in 10.0 mi North 10.4 mph - N/A   Overcast
9:56 PM 35.6 °F 28.6 °F 19.4 °F 52% 29.92 in 10.0 mi North 9.2 mph - N/A   Overcast
10:16 PM 35.6 °F 30.7 °F 19.4 °F 52% 29.92 in 10.0 mi NNE 5.8 mph - N/A   Overcast
10:36 PM 35.6 °F 30.7 °F 19.4 °F 52% 29.93 in 10.0 mi North 5.8 mph - N/A   Overcast
10:56 PM 35.6 °F 28.6 °F 19.4 °F 52% 29.93 in 10.0 mi North 9.2 mph - N/A   Overcast
11:16 PM 35.6 °F 28.6 °F 19.4 °F 52% 29.93 in 10.0 mi North 9.2 mph - N/A   Overcast
11:36 PM 35.6 °F 32.8 °F 19.4 °F 52% 29.93 in 10.0 mi NNE 3.5 mph - N/A   Overcast
11:56 PM 33.8 °F 29.6 °F 19.4 °F 56% 29.93 in 10.0 mi NNE 4.6 mph - N/A   Overcast